Time;durP1;ratioP1;P1;durP2;ratioP2;P2;SDS_P1;SDS_P2;PMS_P1;PMS_P2;Temp;Humidity;BMP_temperature;BMP_pressure;BME280_temperature;BME280_humidity;BME280_pressure;Samples;Min_cycle;Max_cycle;Signal;HPM_P1;HPM_P2
2022/06/27 00:01:17;;;;;;;4.60;2.33;;;;;;;;;;4924525;29;20088;-83
2022/06/27 00:03:50;;;;;;;3.78;2.33;;;;;;;;;;4905044;29;20060;-83
2022/06/27 00:06:19;;;;;;;3.90;2.80;;;;;;;;;;4895091;29;20520;-82
2022/06/27 00:08:48;;;;;;;4.50;2.33;;;;;;;;;;4910162;29;20510;-83
2022/06/27 00:11:41;;;;;;;5.25;2.67;;;;;;;;;;4917981;29;20043;-87
2022/06/27 00:14:13;;;;;;;3.13;2.30;;;;;;;;;;4917773;29;20052;-87
2022/06/27 00:16:45;;;;;;;3.83;2.50;;;;;;;;;;4918813;29;20047;-87
2022/06/27 00:19:16;;;;;;;4.55;2.50;;;;;;;;;;4928721;29;20449;-87
2022/06/27 00:21:44;;;;;;;5.97;2.17;;;;;;;;;;4916925;29;20639;-87
2022/06/27 00:24:11;;;;;;;3.63;2.40;;;;;;;;;;4916551;29;20056;-87
2022/06/27 00:27:04;;;;;;;4.57;2.75;;;;;;;;;;4917685;29;20565;-87
2022/06/27 00:29:32;;;;;;;6.95;2.78;;;;;;;;;;4908471;29;20052;-87
2022/06/27 00:31:59;;;;;;;4.47;2.60;;;;;;;;;;4914431;29;20122;-88
2022/06/27 00:34:31;;;;;;;3.60;2.30;;;;;;;;;;4929258;29;20083;-88
2022/06/27 00:37:00;;;;;;;4.30;2.25;;;;;;;;;;4922944;29;20096;-87
2022/06/27 00:39:27;;;;;;;4.18;2.28;;;;;;;;;;4908410;29;20553;-83
2022/06/27 00:41:55;;;;;;;3.67;2.65;;;;;;;;;;4914376;29;20043;-83
2022/06/27 00:44:50;;;;;;;4.80;2.50;;;;;;;;;;4912968;29;20046;-83
2022/06/27 00:47:20;;;;;;;4.15;2.60;;;;;;;;;;4900583;29;20044;-83
2022/06/27 00:49:53;;;;;;;6.38;2.78;;;;;;;;;;4913074;29;20127;-83
2022/06/27 00:52:21;;;;;;;5.22;2.75;;;;;;;;;;4912033;29;20056;-83
2022/06/27 00:55:15;;;;;;;3.85;2.33;;;;;;;;;;4890590;29;20033;-82
2022/06/27 00:57:47;;;;;;;5.13;2.40;;;;;;;;;;4906920;29;20041;-83
2022/06/27 01:00:17;;;;;;;5.32;2.58;;;;;;;;;;4904987;29;20436;-83
2022/06/27 01:02:43;;;;;;;3.47;2.50;;;;;;;;;;4883420;29;20104;-82
2022/06/27 01:05:13;;;;;;;5.45;2.28;;;;;;;;;;4888113;29;20053;-82
2022/06/27 01:07:41;;;;;;;3.55;2.10;;;;;;;;;;4912642;29;20517;-82
2022/06/27 01:10:10;;;;;;;3.70;2.40;;;;;;;;;;4913889;29;20085;-88
2022/06/27 01:12:41;;;;;;;3.38;2.38;;;;;;;;;;4911086;29;20058;-87
2022/06/27 01:15:10;;;;;;;6.25;3.13;;;;;;;;;;4902394;29;20401;-87
2022/06/27 01:18:04;;;;;;;3.95;2.50;;;;;;;;;;4933130;29;20047;-88
2022/06/27 01:20:31;;;;;;;4.57;2.58;;;;;;;;;;4917422;29;20442;-87
2022/06/27 01:23:00;;;;;;;5.45;2.42;;;;;;;;;;4917576;29;20068;-87
2022/06/27 01:25:52;;;;;;;5.32;2.50;;;;;;;;;;4897010;29;20482;-87
2022/06/27 01:28:20;;;;;;;5.72;2.78;;;;;;;;;;4906244;29;20071;-86
2022/06/27 01:30:53;;;;;;;3.92;2.20;;;;;;;;;;4916167;29;20070;-87
2022/06/27 01:33:24;;;;;;;4.93;2.45;;;;;;;;;;4919863;29;20040;-87
2022/06/27 01:39:10;;;;;;;4.43;2.42;;;;;;;;;;4900218;29;20070;-87
2022/06/27 01:41:41;;;;;;;4.13;2.60;;;;;;;;;;4918563;29;20167;-88
2022/06/27 01:44:17;;;;;;;5.20;2.60;;;;;;;;;;4919545;29;20116;-88
2022/06/27 01:47:08;;;;;;;6.03;2.35;;;;;;;;;;4913941;29;20048;-88
2022/06/27 01:49:43;;;;;;;7.50;2.50;;;;;;;;;;4900235;29;20041;-87
2022/06/27 01:52:16;;;;;;;5.18;2.65;;;;;;;;;;4938647;29;20040;-87
2022/06/27 01:54:43;;;;;;;6.28;2.50;;;;;;;;;;4928019;29;20497;-87
2022/06/27 01:57:14;;;;;;;5.35;2.53;;;;;;;;;;4929578;29;20060;-87
2022/06/27 02:00:07;;;;;;;4.38;2.50;;;;;;;;;;4908075;29;20094;-87
2022/06/27 02:02:59;;;;;;;3.22;1.92;;;;;;;;;;4920190;29;20566;-88
2022/06/27 02:05:40;;;;;;;4.43;2.50;;;;;;;;;;4924778;29;20465;-87
2022/06/27 02:08:14;;;;;;;5.22;2.20;;;;;;;;;;4919033;29;20750;-88
2022/06/27 02:10:41;;;;;;;5.05;2.60;;;;;;;;;;4915270;29;20040;-82
2022/06/27 02:13:10;;;;;;;3.80;2.40;;;;;;;;;;4915281;29;20087;-83
2022/06/27 02:16:11;;;;;;;5.90;2.80;;;;;;;;;;4913041;29;21215;-82
2022/06/27 02:18:42;;;;;;;5.80;2.50;;;;;;;;;;4913970;29;20040;-83
2022/06/27 02:21:11;;;;;;;5.03;2.75;;;;;;;;;;4919723;29;20032;-87
2022/06/27 02:23:39;;;;;;;4.57;2.75;;;;;;;;;;4921148;29;20083;-88
2022/06/27 02:26:10;;;;;;;4.03;2.75;;;;;;;;;;4931569;29;20051;-87
2022/06/27 02:28:44;;;;;;;7.03;2.42;;;;;;;;;;4921985;29;20043;-86
2022/06/27 02:31:48;;;;;;;3.72;2.33;;;;;;;;;;4899189;29;20438;-82
2022/06/27 02:34:16;;;;;;;4.85;2.60;;;;;;;;;;4915471;29;20048;-82
2022/06/27 02:37:09;;;;;;;4.22;2.33;;;;;;;;;;4911120;29;20482;-82
2022/06/27 02:39:44;;;;;;;5.20;2.20;;;;;;;;;;4906009;29;20095;-82
2022/06/27 02:42:14;;;;;;;3.95;2.13;;;;;;;;;;4912695;29;20037;-82
2022/06/27 02:44:48;;;;;;;6.10;2.53;;;;;;;;;;4892865;29;20493;-82
2022/06/27 02:47:21;;;;;;;6.53;2.00;;;;;;;;;;4899104;29;20040;-83
2022/06/27 02:49:53;;;;;;;7.07;2.30;;;;;;;;;;4900054;29;20112;-82
2022/06/27 02:52:32;;;;;;;3.17;1.85;;;;;;;;;;4913799;29;20485;-83
2022/06/27 02:55:22;;;;;;;4.93;1.92;;;;;;;;;;4899353;29;20416;-82
2022/06/27 02:58:05;;;;;;;3.97;2.10;;;;;;;;;;4898379;29;20075;-83
2022/06/27 03:00:58;;;;;;;4.88;2.00;;;;;;;;;;4899766;29;20065;-83
2022/06/27 03:03:27;;;;;;;4.30;2.05;;;;;;;;;;4914129;29;20413;-82
2022/06/27 03:06:06;;;;;;;4.50;1.98;;;;;;;;;;4914857;29;20055;-82
2022/06/27 03:08:46;;;;;;;4.78;1.73;;;;;;;;;;4915226;29;20043;-83
2022/06/27 03:11:21;;;;;;;4.05;1.90;;;;;;;;;;4933008;29;20056;-87
2022/06/27 03:13:51;;;;;;;6.75;2.47;;;;;;;;;;4907360;29;20092;-87
2022/06/27 03:16:21;;;;;;;3.17;1.98;;;;;;;;;;4890532;29;20051;-87
2022/06/27 03:18:52;;;;;;;4.68;2.00;;;;;;;;;;4900304;29;20405;-83
2022/06/27 03:21:55;;;;;;;4.10;1.90;;;;;;;;;;4865846;29;20418;-83
2022/06/27 03:24:23;;;;;;;4.38;1.90;;;;;;;;;;4858118;29;20152;-83
2022/06/27 03:26:51;;;;;;;6.05;1.92;;;;;;;;;;4868284;29;20057;-82
2022/06/27 03:29:19;;;;;;;5.72;1.80;;;;;;;;;;4873708;29;20056;-87
2022/06/27 03:31:47;;;;;;;4.35;2.58;;;;;;;;;;4879400;29;20051;-87
2022/06/27 03:34:16;;;;;;;5.72;1.92;;;;;;;;;;4864280;29;20072;-87
2022/06/27 03:37:03;;;;;;;3.53;2.00;;;;;;;;;;4879108;29;20084;-87
2022/06/27 03:39:32;;;;;;;6.32;1.85;;;;;;;;;;4862979;29;20148;-82
2022/06/27 03:42:49;;;;;;;4.45;2.00;;;;;;;;;;4857834;29;20406;-83
2022/06/27 03:45:18;;;;;;;4.20;1.80;;;;;;;;;;4873921;29;20049;-82
2022/06/27 03:47:54;;;;;;;4.30;1.90;;;;;;;;;;4874109;29;20084;-83
2022/06/27 03:50:34;;;;;;;5.40;2.05;;;;;;;;;;4875381;29;20562;-82
2022/06/27 03:53:03;;;;;;;4.47;2.05;;;;;;;;;;4855919;29;20072;-82
2022/06/27 03:55:57;;;;;;;3.97;2.00;;;;;;;;;;4889317;29;20638;-82
2022/06/27 03:58:25;;;;;;;9.00;2.42;;;;;;;;;;4917227;29;20068;-87
2022/06/27 04:00:57;;;;;;;4.85;2.40;;;;;;;;;;4895623;29;20054;-88
2022/06/27 04:03:25;;;;;;;4.72;2.10;;;;;;;;;;4899455;29;20052;-88
2022/06/27 04:06:17;;;;;;;4.53;1.90;;;;;;;;;;4919503;29;20040;-88
2022/06/27 04:08:51;;;;;;;5.97;2.13;;;;;;;;;;4925598;29;20051;-87
2022/06/27 04:11:45;;;;;;;3.45;1.98;;;;;;;;;;4913212;29;20032;-83
2022/06/27 04:14:31;;;;;;;7.05;2.22;;;;;;;;;;4899429;29;20071;-83
2022/06/27 04:17:24;;;;;;;4.60;2.17;;;;;;;;;;4912185;29;20406;-83
2022/06/27 04:20:11;;;;;;;3.50;1.85;;;;;;;;;;4917729;29;20048;-83
2022/06/27 04:22:56;;;;;;;4.18;1.98;;;;;;;;;;4896693;29;20044;-83
2022/06/27 04:25:50;;;;;;;3.60;1.90;;;;;;;;;;4912803;29;20051;-83
2022/06/27 04:28:18;;;;;;;3.75;2.00;;;;;;;;;;4897317;29;20076;-88
2022/06/27 04:30:49;;;;;;;5.38;2.03;;;;;;;;;;4915808;29;20076;-87
2022/06/27 04:33:17;;;;;;;6.25;1.98;;;;;;;;;;4917199;29;20041;-88
2022/06/27 04:35:50;;;;;;;3.40;1.95;;;;;;;;;;4916415;29;20065;-88
2022/06/27 04:38:20;;;;;;;6.85;2.25;;;;;;;;;;4895552;29;20036;-82
2022/06/27 04:41:09;;;;;;;4.72;2.30;;;;;;;;;;4914368;29;20048;-86
2022/06/27 04:43:41;;;;;;;6.63;2.67;;;;;;;;;;4916042;29;21006;-86
2022/06/27 04:46:16;;;;;;;4.28;2.05;;;;;;;;;;4913804;29;20461;-86
2022/06/27 04:49:08;;;;;;;4.50;2.15;;;;;;;;;;4910403;29;20502;-82
2022/06/27 04:52:00;;;;;;;3.95;2.05;;;;;;;;;;4896167;29;20043;-82
2022/06/27 04:54:38;;;;;;;4.78;2.25;;;;;;;;;;4912186;29;20139;-82
2022/06/27 04:57:06;;;;;;;6.20;2.47;;;;;;;;;;4911252;29;20048;-82
2022/06/27 04:59:35;;;;;;;6.05;2.10;;;;;;;;;;4911434;29;20041;-85
2022/06/27 05:02:18;;;;;;;5.30;2.40;;;;;;;;;;4912457;29;20128;-86
2022/06/27 05:04:45;;;;;;;4.82;2.42;;;;;;;;;;4901220;29;20099;-86
2022/06/27 05:07:18;;;;;;;9.35;2.17;;;;;;;;;;4906381;29;20036;-86
2022/06/27 05:09:52;;;;;;;7.75;2.33;;;;;;;;;;4925141;29;20052;-83
2022/06/27 05:12:20;;;;;;;4.82;2.38;;;;;;;;;;4917022;29;20036;-82
2022/06/27 05:14:55;;;;;;;4.13;2.63;;;;;;;;;;4908774;29;20052;-82
2022/06/27 05:17:24;;;;;;;5.70;2.70;;;;;;;;;;4921149;29;20039;-83
2022/06/27 05:19:52;;;;;;;7.63;2.90;;;;;;;;;;4915322;29;20046;-85
2022/06/27 05:22:20;;;;;;;4.65;2.75;;;;;;;;;;4927509;29;20044;-86
2022/06/27 05:24:48;;;;;;;4.88;2.67;;;;;;;;;;4919250;29;20405;-85
2022/06/27 05:27:23;;;;;;;5.40;3.00;;;;;;;;;;4921585;29;20518;-85
2022/06/27 05:29:50;;;;;;;6.22;2.58;;;;;;;;;;4920460;29;20107;-85
2022/06/27 05:32:19;;;;;;;4.82;2.85;;;;;;;;;;4900856;29;20501;-83
2022/06/27 05:34:53;;;;;;;8.15;3.03;;;;;;;;;;4913369;29;20485;-86
2022/06/27 05:37:22;;;;;;;5.53;3.10;;;;;;;;;;4903150;29;20045;-86
2022/06/27 05:39:56;;;;;;;6.00;2.85;;;;;;;;;;4915677;29;20441;-86
2022/06/27 05:42:23;;;;;;;5.30;2.83;;;;;;;;;;4920273;29;20052;-86
2022/06/27 05:44:51;;;;;;;6.05;2.75;;;;;;;;;;4920240;29;20048;-86
2022/06/27 05:47:25;;;;;;;6.03;3.20;;;;;;;;;;4916351;29;20473;-87
2022/06/27 05:50:16;;;;;;;4.50;2.60;;;;;;;;;;4898361;29;20494;-88
2022/06/27 05:52:43;;;;;;;4.85;2.63;;;;;;;;;;4919505;29;20032;-87
2022/06/27 05:55:11;;;;;;;7.50;3.17;;;;;;;;;;4909314;29;20054;-87
2022/06/27 05:57:44;;;;;;;6.47;2.97;;;;;;;;;;4907179;29;20552;-89
2022/06/27 06:00:13;;;;;;;5.80;3.40;;;;;;;;;;4926731;29;20401;-84
2022/06/27 06:02:41;;;;;;;6.43;3.40;;;;;;;;;;4902980;29;20492;-84
2022/06/27 06:05:12;;;;;;;5.18;2.88;;;;;;;;;;4903810;29;20580;-85
2022/06/27 06:07:42;;;;;;;6.45;3.13;;;;;;;;;;4901726;29;20460;-82
2022/06/27 06:10:10;;;;;;;5.65;3.00;;;;;;;;;;4904024;29;20390;-86
2022/06/27 06:12:38;;;;;;;4.15;2.90;;;;;;;;;;4916474;29;20133;-86
2022/06/27 06:15:06;;;;;;;7.88;3.40;;;;;;;;;;4919483;29;20099;-86
2022/06/27 06:17:34;;;;;;;6.13;3.08;;;;;;;;;;4917744;29;20489;-86
2022/06/27 06:20:05;;;;;;;5.63;3.40;;;;;;;;;;4918078;29;20044;-82
2022/06/27 06:22:32;;;;;;;7.65;3.40;;;;;;;;;;4890399;29;20132;-82
2022/06/27 06:24:59;;;;;;;7.00;3.65;;;;;;;;;;4904795;29;20046;-82
2022/06/27 06:27:29;;;;;;;7.47;3.55;;;;;;;;;;4921002;29;20504;-82
2022/06/27 06:30:22;;;;;;;5.85;3.30;;;;;;;;;;4912730;29;20024;-86
2022/06/27 06:32:50;;;;;;;6.38;3.65;;;;;;;;;;4892214;29;20037;-86
2022/06/27 06:35:44;;;;;;;8.80;3.78;;;;;;;;;;4927311;29;20046;-86
2022/06/27 06:38:12;;;;;;;5.88;3.92;;;;;;;;;;4916637;29;20132;-86
2022/06/27 06:40:45;;;;;;;6.22;4.05;;;;;;;;;;4906944;29;20549;-82
2022/06/27 06:43:13;;;;;;;7.60;4.32;;;;;;;;;;4898044;29;20037;-83
2022/06/27 06:45:44;;;;;;;6.65;3.55;;;;;;;;;;4909159;29;20051;-82
2022/06/27 06:48:37;;;;;;;6.95;4.15;;;;;;;;;;4910788;29;20123;-83
2022/06/27 06:51:06;;;;;;;8.98;4.18;;;;;;;;;;4896681;29;20573;-86
2022/06/27 06:53:35;;;;;;;8.38;3.90;;;;;;;;;;4910305;29;20056;-86
2022/06/27 06:56:05;;;;;;;6.40;4.22;;;;;;;;;;4899999;29;20067;-86
2022/06/27 06:58:36;;;;;;;7.80;4.25;;;;;;;;;;4901572;29;20620;-86
2022/06/27 07:01:05;;;;;;;10.27;4.10;;;;;;;;;;4913948;29;20056;-82
2022/06/27 07:03:34;;;;;;;5.93;3.90;;;;;;;;;;4906261;29;20118;-82
2022/06/27 07:06:06;;;;;;;5.78;4.10;;;;;;;;;;4903288;29;20505;-83
2022/06/27 07:08:38;;;;;;;6.43;4.20;;;;;;;;;;4905200;29;20139;-86
2022/06/27 07:11:06;;;;;;;9.43;4.78;;;;;;;;;;4901843;29;20036;-81
2022/06/27 07:13:34;;;;;;;7.75;4.13;;;;;;;;;;4904694;29;20052;-82
2022/06/27 07:16:03;;;;;;;11.32;5.22;;;;;;;;;;4907182;29;20091;-83
2022/06/27 07:18:37;;;;;;;7.35;4.75;;;;;;;;;;4898135;29;20040;-86
2022/06/27 07:21:11;;;;;;;7.00;4.80;;;;;;;;;;4919440;29;20044;-86
2022/06/27 07:23:39;;;;;;;11.02;4.38;;;;;;;;;;4926888;29;20039;-86
2022/06/27 07:26:32;;;;;;;8.02;4.18;;;;;;;;;;4917381;29;20103;-86
2022/06/27 07:29:04;;;;;;;9.77;3.67;;;;;;;;;;4911300;29;20048;-86
2022/06/27 07:31:32;;;;;;;7.93;3.97;;;;;;;;;;4902523;29;20442;-86
2022/06/27 07:34:08;;;;;;;7.78;4.35;;;;;;;;;;4899891;29;20061;-86
2022/06/27 07:36:36;;;;;;;8.20;4.72;;;;;;;;;;4907269;29;20064;-86
2022/06/27 07:39:04;;;;;;;9.05;4.80;;;;;;;;;;4913924;29;20048;-82
2022/06/27 07:41:32;;;;;;;6.88;4.22;;;;;;;;;;4912803;29;20504;-82
2022/06/27 07:44:06;;;;;;;6.53;4.90;;;;;;;;;;4914211;29;20044;-83
2022/06/27 07:46:34;;;;;;;7.88;4.80;;;;;;;;;;4888071;29;20045;-83
2022/06/27 07:49:02;;;;;;;7.57;4.80;;;;;;;;;;4890819;29;20099;-86
2022/06/27 07:51:29;;;;;;;7.95;4.85;;;;;;;;;;4922393;29;20516;-86
2022/06/27 07:54:22;;;;;;;7.57;5.38;;;;;;;;;;4915745;29;20032;-85
2022/06/27 07:56:50;;;;;;;10.48;5.00;;;;;;;;;;4908161;29;20505;-86
2022/06/27 07:59:29;;;;;;;7.18;5.10;;;;;;;;;;4904823;29;20070;-86
2022/06/27 08:01:58;;;;;;;9.98;5.50;;;;;;;;;;4916874;29;20036;-86
2022/06/27 08:04:29;;;;;;;8.35;5.57;;;;;;;;;;4921499;29;20039;-86
2022/06/27 08:07:02;;;;;;;9.48;5.50;;;;;;;;;;4917828;29;20051;-86
2022/06/27 08:09:29;;;;;;;11.70;6.40;;;;;;;;;;4896772;29;20055;-83
2022/06/27 08:11:59;;;;;;;8.43;6.30;;;;;;;;;;4907193;29;20056;-83
2022/06/27 08:14:27;;;;;;;10.80;6.00;;;;;;;;;;4892125;29;20413;-83
2022/06/27 08:16:56;;;;;;;9.40;5.97;;;;;;;;;;4905618;29;20044;-83
2022/06/27 08:19:23;;;;;;;12.30;6.10;;;;;;;;;;4893408;29;20091;-86
2022/06/27 08:21:51;;;;;;;9.82;6.15;;;;;;;;;;4916658;29;20060;-86
2022/06/27 08:24:19;;;;;;;11.93;5.90;;;;;;;;;;4912764;29;20441;-86
2022/06/27 08:26:49;;;;;;;10.10;6.20;;;;;;;;;;4916193;29;20127;-86
2022/06/27 08:29:17;;;;;;;9.32;6.07;;;;;;;;;;4918998;29;20104;-86
2022/06/27 08:31:52;;;;;;;8.48;6.32;;;;;;;;;;4917424;29;20044;-86
2022/06/27 08:34:21;;;;;;;9.70;6.10;;;;;;;;;;4913061;29;20044;-86
2022/06/27 08:36:54;;;;;;;10.57;6.55;;;;;;;;;;4914136;29;20409;-86
2022/06/27 08:42:19;;;;;;;15.90;7.20;;;;;;;;;;4917460;29;20032;-86
2022/06/27 08:45:19;;;;;;;12.68;7.82;;;;;;;;;;4925810;29;20143;-86
2022/06/27 08:47:58;;;;;;;13.70;7.68;;;;;;;;;;4912335;29;20056;-86
2022/06/27 08:50:35;;;;;;;9.82;7.00;;;;;;;;;;4905683;29;20519;-85
2022/06/27 08:53:05;;;;;;;15.55;8.27;;;;;;;;;;4919658;29;20719;-87
2022/06/27 08:55:36;;;;;;;13.63;7.60;;;;;;;;;;4918120;29;20096;-87
2022/06/27 08:58:06;;;;;;;11.05;8.00;;;;;;;;;;4912910;29;20055;-87
2022/06/27 09:00:37;;;;;;;11.73;7.63;;;;;;;;;;4925381;29;20036;-82
2022/06/27 09:03:06;;;;;;;12.27;7.97;;;;;;;;;;4892149;29;20076;-82
2022/06/27 09:05:34;;;;;;;12.00;7.10;;;;;;;;;;4917342;29;20054;-82
2022/06/27 09:08:08;;;;;;;11.10;6.47;;;;;;;;;;4912659;29;20126;-82
2022/06/27 09:10:43;;;;;;;17.95;7.45;;;;;;;;;;4918085;29;20052;-87
2022/06/27 09:13:17;;;;;;;15.40;7.30;;;;;;;;;;4908316;29;20071;-87
2022/06/27 09:15:58;;;;;;;12.38;7.20;;;;;;;;;;4914346;29;20053;-87
2022/06/27 09:18:36;;;;;;;12.60;6.18;;;;;;;;;;4913646;29;20044;-86
2022/06/27 09:21:05;;;;;;;11.45;6.78;;;;;;;;;;4899495;29;20549;-82
2022/06/27 09:23:54;;;;;;;11.27;7.32;;;;;;;;;;4908524;29;20044;-82
2022/06/27 09:26:27;;;;;;;14.93;6.70;;;;;;;;;;4905202;29;20048;-82
2022/06/27 09:28:59;;;;;;;13.52;7.15;;;;;;;;;;4909200;29;20080;-87
2022/06/27 09:31:30;;;;;;;13.18;6.72;;;;;;;;;;4910132;29;20127;-87
2022/06/27 09:34:18;;;;;;;13.82;7.43;;;;;;;;;;4906501;29;20044;-87
2022/06/27 09:36:48;;;;;;;12.25;7.20;;;;;;;;;;4916178;29;20048;-87
2022/06/27 09:39:37;;;;;;;9.55;6.38;;;;;;;;;;4921756;29;20051;-87
2022/06/27 09:42:13;;;;;;;14.68;7.28;;;;;;;;;;4907721;29;20040;-86
2022/06/27 09:44:42;;;;;;;15.68;8.30;;;;;;;;;;4921347;29;20112;-87
2022/06/27 09:47:35;;;;;;;14.73;7.35;;;;;;;;;;4895328;29;20047;-87
2022/06/27 09:50:04;;;;;;;12.57;7.72;;;;;;;;;;4918417;29;20044;-82
2022/06/27 09:52:32;;;;;;;13.65;7.88;;;;;;;;;;4892557;29;20047;-83
2022/06/27 09:55:02;;;;;;;11.93;7.88;;;;;;;;;;4916190;29;20961;-82
2022/06/27 09:57:30;;;;;;;13.40;6.68;;;;;;;;;;4903565;29;20096;-82
2022/06/27 09:59:59;;;;;;;14.23;7.90;;;;;;;;;;4917961;29;20040;-83
2022/06/27 10:02:52;;;;;;;15.00;8.00;;;;;;;;;;4916775;29;20040;-82
2022/06/27 10:05:26;;;;;;;12.15;7.32;;;;;;;;;;4912799;29;20055;-83
2022/06/27 10:07:58;;;;;;;13.63;7.43;;;;;;;;;;4912562;29;20903;-82
2022/06/27 10:10:30;;;;;;;13.68;7.30;;;;;;;;;;4909195;29;20076;-87
2022/06/27 10:13:04;;;;;;;12.38;7.72;;;;;;;;;;4917593;29;20040;-87
2022/06/27 10:15:38;;;;;;;14.30;8.25;;;;;;;;;;4917053;29;20133;-87
2022/06/27 10:18:05;;;;;;;15.80;9.02;;;;;;;;;;4918734;29;20379;-87
2022/06/27 10:20:39;;;;;;;17.15;8.90;;;;;;;;;;4921764;29;20043;-87
2022/06/27 10:23:31;;;;;;;15.27;8.77;;;;;;;;;;4919177;29;20515;-87
2022/06/27 10:26:01;;;;;;;12.88;7.75;;;;;;;;;;4916860;29;20060;-87
2022/06/27 10:29:15;;;;;;;13.40;8.07;;;;;;;;;;4903220;29;20048;-86
2022/06/27 10:31:45;;;;;;;14.77;9.18;;;;;;;;;;4905384;29;20083;-83
2022/06/27 10:34:13;;;;;;;15.48;8.57;;;;;;;;;;4911283;29;20182;-83
2022/06/27 10:36:45;;;;;;;18.00;8.18;;;;;;;;;;4914701;29;20127;-83
2022/06/27 10:39:19;;;;;;;10.88;8.02;;;;;;;;;;4914400;29;20040;-82
2022/06/27 10:41:47;;;;;;;17.13;9.02;;;;;;;;;;4880745;29;20679;-82
2022/06/27 10:44:31;;;;;;;13.32;8.48;;;;;;;;;;4915511;29;20051;-83
2022/06/27 10:46:58;;;;;;;13.50;9.23;;;;;;;;;;4901194;29;20049;-83
2022/06/27 10:49:27;;;;;;;13.63;8.60;;;;;;;;;;4913867;29;20044;-83
2022/06/27 10:52:23;;;;;;;13.25;8.77;;;;;;;;;;4912117;29;20107;-83
2022/06/27 10:54:51;;;;;;;13.40;8.88;;;;;;;;;;4911848;29;20044;-82
2022/06/27 10:57:37;;;;;;;20.23;8.88;;;;;;;;;;4912341;29;20055;-82
2022/06/27 11:00:06;;;;;;;16.60;8.25;;;;;;;;;;4902990;29;20107;-87
2022/06/27 11:02:34;;;;;;;13.02;8.57;;;;;;;;;;4916638;29;20457;-87
2022/06/27 11:05:04;;;;;;;14.40;9.15;;;;;;;;;;4919677;29;20040;-87
2022/06/27 11:07:32;;;;;;;13.60;9.10;;;;;;;;;;4922225;29;20051;-87
2022/06/27 11:10:24;;;;;;;12.07;8.15;;;;;;;;;;4904788;29;20160;-87
2022/06/27 11:12:51;;;;;;;13.55;8.55;;;;;;;;;;4918329;29;20040;-87
2022/06/27 11:15:50;;;;;;;14.05;8.93;;;;;;;;;;4916725;29;20043;-87
2022/06/27 11:18:17;;;;;;;12.70;8.05;;;;;;;;;;4921737;29;20063;-87
2022/06/27 11:20:45;;;;;;;15.98;9.07;;;;;;;;;;4919966;29;20047;-87
2022/06/27 11:23:13;;;;;;;11.80;7.50;;;;;;;;;;4918172;29;20501;-87
2022/06/27 11:25:47;;;;;;;14.98;8.05;;;;;;;;;;4925504;29;20050;-87
2022/06/27 11:33:56;;;;;;;10.93;7.47;;;;;;;;;;4912322;29;20874;-82
2022/06/27 11:36:24;;;;;;;13.13;8.20;;;;;;;;;;4918327;29;20099;-82
2022/06/27 11:38:52;;;;;;;12.55;7.53;;;;;;;;;;4915867;29;20500;-86
2022/06/27 11:41:30;;;;;;;11.43;8.10;;;;;;;;;;4907484;29;20048;-83
2022/06/27 11:44:02;;;;;;;12.75;8.52;;;;;;;;;;4912901;29;20035;-82
2022/06/27 11:46:37;;;;;;;13.75;8.55;;;;;;;;;;4915581;29;20059;-83
2022/06/27 11:49:08;;;;;;;12.50;8.60;;;;;;;;;;4901522;29;20052;-83
2022/06/27 11:51:39;;;;;;;17.02;9.20;;;;;;;;;;4898627;29;20382;-83
2022/06/27 11:54:09;;;;;;;13.95;8.73;;;;;;;;;;4891746;29;20561;-84
2022/06/27 11:56:41;;;;;;;11.63;8.18;;;;;;;;;;4913323;29;20052;-83
2022/06/27 11:59:09;;;;;;;14.90;9.15;;;;;;;;;;4906961;29;20048;-87
2022/06/27 12:01:55;;;;;;;13.57;8.93;;;;;;;;;;4918084;29;20051;-87
2022/06/27 12:04:32;;;;;;;16.77;9.35;;;;;;;;;;4920383;29;20040;-87
2022/06/27 12:07:25;;;;;;;13.73;9.57;;;;;;;;;;4916876;29;20431;-87
2022/06/27 12:09:58;;;;;;;13.50;8.63;;;;;;;;;;4918899;29;20043;-88
2022/06/27 12:12:26;;;;;;;15.95;9.65;;;;;;;;;;4917058;29;20127;-88
2022/06/27 12:14:57;;;;;;;15.18;10.23;;;;;;;;;;4901001;29;20499;-87
2022/06/27 12:17:37;;;;;;;14.50;9.77;;;;;;;;;;4917839;29;20044;-87
2022/06/27 12:20:09;;;;;;;14.57;10.38;;;;;;;;;;4917295;29;20107;-87
2022/06/27 12:22:37;;;;;;;16.45;10.70;;;;;;;;;;4901689;29;20087;-87
2022/06/27 12:25:18;;;;;;;14.52;9.38;;;;;;;;;;4914305;29;20491;-87
2022/06/27 12:27:46;;;;;;;16.35;10.27;;;;;;;;;;4918698;29;20054;-87
2022/06/27 12:30:14;;;;;;;12.65;9.05;;;;;;;;;;4897913;29;20047;-83
2022/06/27 12:32:42;;;;;;;12.80;8.75;;;;;;;;;;4910238;29;20071;-83
2022/06/27 12:35:10;;;;;;;12.75;7.68;;;;;;;;;;4905529;29;20155;-83
2022/06/27 12:37:42;;;;;;;14.93;8.98;;;;;;;;;;4913842;29;20055;-83
2022/06/27 12:40:10;;;;;;;13.90;7.97;;;;;;;;;;4913708;29;20051;-83
2022/06/27 12:42:37;;;;;;;13.70;8.32;;;;;;;;;;4917022;29;20044;-83
2022/06/27 12:45:12;;;;;;;11.82;8.02;;;;;;;;;;4901296;29;20068;-83
2022/06/27 12:47:45;;;;;;;12.20;7.90;;;;;;;;;;4911721;29;20050;-83
2022/06/27 12:50:13;;;;;;;11.75;8.13;;;;;;;;;;4911358;29;20051;-83
2022/06/27 12:52:45;;;;;;;11.23;8.32;;;;;;;;;;4890960;29;20040;-83
2022/06/27 12:55:13;;;;;;;10.18;7.75;;;;;;;;;;4913852;29;20047;-83
2022/06/27 12:57:42;;;;;;;10.82;7.80;;;;;;;;;;4908901;29;20443;-83
2022/06/27 13:00:10;;;;;;;10.13;6.93;;;;;;;;;;4873289;29;20060;-83
2022/06/27 13:02:38;;;;;;;9.85;6.80;;;;;;;;;;4889905;29;20128;-84
2022/06/27 13:05:06;;;;;;;9.73;7.45;;;;;;;;;;4917435;29;20470;-84
2022/06/27 13:07:33;;;;;;;8.95;6.28;;;;;;;;;;4908417;29;20044;-84
2022/06/27 13:10:02;;;;;;;10.80;7.15;;;;;;;;;;4909140;29;20048;-88
2022/06/27 13:12:29;;;;;;;12.07;7.88;;;;;;;;;;4902380;29;20037;-88
2022/06/27 13:14:57;;;;;;;10.40;6.40;;;;;;;;;;4924690;29;20772;-87
2022/06/27 13:17:25;;;;;;;8.90;5.72;;;;;;;;;;4904371;29;20048;-87
2022/06/27 13:19:54;;;;;;;9.30;6.60;;;;;;;;;;4914730;29;20083;-84
2022/06/27 13:22:21;;;;;;;11.55;7.03;;;;;;;;;;4910738;29;20055;-83
2022/06/27 13:24:49;;;;;;;10.57;6.72;;;;;;;;;;4897303;29;20714;-83
2022/06/27 13:27:41;;;;;;;11.88;7.57;;;;;;;;;;4915276;29;20044;-84
2022/06/27 13:30:10;;;;;;;12.13;7.78;;;;;;;;;;4900635;29;20045;-88
2022/06/27 13:32:38;;;;;;;11.52;7.93;;;;;;;;;;4923440;29;20201;-88
2022/06/27 13:35:06;;;;;;;11.48;7.65;;;;;;;;;;4917626;29;20483;-88
2022/06/27 13:37:36;;;;;;;11.68;7.57;;;;;;;;;;4929503;29;20040;-86
2022/06/27 13:40:05;;;;;;;10.40;7.53;;;;;;;;;;4915820;29;20221;-82
2022/06/27 13:42:59;;;;;;;11.73;7.40;;;;;;;;;;4913417;29;20114;-85
2022/06/27 13:45:57;;;;;;;9.68;6.65;;;;;;;;;;4901828;29;20033;-84
2022/06/27 13:48:25;;;;;;;12.38;7.57;;;;;;;;;;4914448;29;20051;-85
2022/06/27 13:50:54;;;;;;;10.90;7.20;;;;;;;;;;4913500;29;20182;-85
2022/06/27 13:53:21;;;;;;;10.05;6.07;;;;;;;;;;4914116;29;20067;-84
2022/06/27 13:55:49;;;;;;;10.40;7.00;;;;;;;;;;4913814;29;20043;-84
2022/06/27 13:58:17;;;;;;;11.52;6.85;;;;;;;;;;4894174;29;20137;-86
2022/06/27 14:00:48;;;;;;;11.80;7.18;;;;;;;;;;4913992;29;20520;-83
2022/06/27 14:03:15;;;;;;;8.43;6.05;;;;;;;;;;4911884;29;20148;-85
2022/06/27 14:05:43;;;;;;;10.18;6.93;;;;;;;;;;4908058;29;20049;-85
2022/06/27 14:08:11;;;;;;;10.18;6.60;;;;;;;;;;4916907;29;20117;-85
2022/06/27 14:10:54;;;;;;;11.18;6.32;;;;;;;;;;4925649;29;20043;-88
2022/06/27 14:13:22;;;;;;;10.45;7.25;;;;;;;;;;4918194;29;20048;-88
2022/06/27 14:16:15;;;;;;;11.80;7.20;;;;;;;;;;4924721;29;20044;-87
2022/06/27 14:18:43;;;;;;;11.07;7.57;;;;;;;;;;4923110;29;20055;-87
2022/06/27 14:21:15;;;;;;;11.43;8.10;;;;;;;;;;4926622;29;20048;-87
2022/06/27 14:23:43;;;;;;;11.70;8.52;;;;;;;;;;4921277;29;20040;-87
2022/06/27 14:26:11;;;;;;;11.20;8.65;;;;;;;;;;4921590;29;20067;-87
2022/06/27 14:28:39;;;;;;;11.32;8.18;;;;;;;;;;4919894;29;20076;-85
2022/06/27 14:31:07;;;;;;;10.82;7.75;;;;;;;;;;4920885;29;20052;-87
2022/06/27 14:33:39;;;;;;;12.07;8.75;;;;;;;;;;4915084;29;20044;-87
2022/06/27 14:36:09;;;;;;;14.40;9.52;;;;;;;;;;4915972;29;20749;-87
2022/06/27 14:38:37;;;;;;;10.60;8.05;;;;;;;;;;4915359;29;20044;-85
2022/06/27 14:41:06;;;;;;;12.70;8.43;;;;;;;;;;4913653;29;20052;-87
2022/06/27 14:43:34;;;;;;;11.60;8.15;;;;;;;;;;4897782;29;20569;-87
2022/06/27 14:46:01;;;;;;;14.35;7.88;;;;;;;;;;4909318;29;20117;-87
2022/06/27 14:48:29;;;;;;;11.40;8.63;;;;;;;;;;4917483;29;20045;-85
2022/06/27 14:51:01;;;;;;;13.25;8.95;;;;;;;;;;4896817;29;20052;-87
2022/06/27 14:53:31;;;;;;;13.93;9.93;;;;;;;;;;4912890;29;20040;-87
2022/06/27 14:56:25;;;;;;;15.48;10.10;;;;;;;;;;4897007;29;20044;-87
2022/06/27 14:58:54;;;;;;;12.40;9.52;;;;;;;;;;4924773;29;20516;-86
2022/06/27 15:01:48;;;;;;;15.27;10.00;;;;;;;;;;4910269;29;20051;-85
2022/06/27 15:04:18;;;;;;;12.73;9.57;;;;;;;;;;4907399;29;23628;-85
2022/06/27 15:06:51;;;;;;;13.52;9.73;;;;;;;;;;4904220;29;20888;-84
2022/06/27 15:09:43;;;;;;;13.25;9.18;;;;;;;;;;4921616;29;20947;-85
2022/06/27 15:12:11;;;;;;;14.00;9.98;;;;;;;;;;4919324;29;20148;-84
2022/06/27 15:14:39;;;;;;;12.07;9.13;;;;;;;;;;4910442;29;20045;-85
2022/06/27 15:17:31;;;;;;;14.85;7.90;;;;;;;;;;4911738;29;20032;-83
2022/06/27 15:19:59;;;;;;;15.07;9.10;;;;;;;;;;4913370;29;20050;-88
2022/06/27 15:22:27;;;;;;;12.80;8.80;;;;;;;;;;4926068;29;20048;-88
2022/06/27 15:24:55;;;;;;;12.30;8.05;;;;;;;;;;4901939;29;20044;-89
2022/06/27 15:27:24;;;;;;;11.40;7.60;;;;;;;;;;4917625;29;20044;-87